Saint Matthews, South Carolina
Current Conditions -  °F | °C
As of 9:53 AM on Saturday 22 Nov 2014 (Local Time) from KOGB Reporting Station
Clear Clear  
Wind Chill: 45°   Ceiling: Unl
Heat Index: 48°   Visibility: 10mi
Dew Point: 30°   Wind: 7mph
Humidity: 50%   Direction: 70°ENE
Pressure: 30.53"   Gusts: NA
Location:  33.66°N, 80.78°W
Report Text: KOGB 221453Z AUTO 07006KT 10SM CLR 09/M01 A3053 RMK AO2 SLP338 T00891011 51003
Loading
Personal Weather Stations






























Interactive Weather Map New forecast layout! Learn more

10-Day Weather Forecast

Advertisements
Track Severe Weather on mobile